Bahias De Huatulco, Mexico

5:51 PM CDT on October 20, 2014 (GMT -0500)
Bahias De Huatulco | Change Station
CLOSE
Current Station
Airport
Location: Bahias de Huatulco,
Elevation: 469 ft
Nearby Weather Stations

Elev 469 ft 15.78 °N, 96.26 °W | Updated 1 hour ago

Mostly Cloudy
Mostly Cloudy
79 °F
Feels Like 79 °F
N
12
Wind Variable Wind from WSW

Today
High -- | Low -- °F
--% Chance of Precip.
Yesterday
High -- | Low -- °F
Precip. -- in
7:18 AM 7:01 PM
Waning Crescent, 8% visible
Pressure 29.76 in
Visibility 7.0 miles
Clouds Scattered Clouds 2000 ft
Mostly Cloudy 10000 ft
Dew Point 73 °F
Humidity 83%
Rainfall 0.00 in
Snow Depth Not available.
UV 2 out of 12
Pollen Not available.
Air Quality Not available.
Flu Activity Not available.
METAR MMBT 202150Z 24010KT 7SM SCT020 BKN100 26/23 A2976 RMK 8/130 HZY

More Conditions Fewer Conditions

Pressure 29.76 in
Visibility 7.0 miles
Clouds Scattered Clouds 2000 ft
Mostly Cloudy 10000 ft
Dew Point 73 °F
Humidity 83%
Rainfall 0.00 in
Snow Depth Not available.
UV 2 out of 12
Pollen Not available.
Air Quality Not available.
Flu Activity Not available.
METAR MMBT 202150Z 24010KT 7SM SCT020 BKN100 26/23 A2976 RMK 8/130 HZY

More Conditions Fewer Conditions

10-Day Weather Forecast

Almanac

Astronomy

Oct. 20, 2014 Rise Set
Actual Time 7:18 AM CDT 7:01 PM CDT
Civil Twilight 6:56 AM CDT 7:22 PM CDT
Nautical Twilight 6:31 AM CDT 7:48 PM CDT
Astronomical Twilight 6:06 AM CDT 8:13 PM CDT
Moon 4:36 AM CDT 5:00 PM CDT
Length of Visible Light 12h 26m
Length of Day
11h 42m
Tomorrow will be 0m 50s shorter.
Waning Crescent, 8% of the Moon is Illuminated
Today
Waning Crescent
Oct 23
New
Oct 30
First Quarter
Nov 6
Full
Nov 14
Last Quarter

Today's Extremes

Country Highs Country Lows

Community

WunderPhotos

Upload Photos

1,763,541 photos uploaded!

WunderBlogs® & News

By Dr. Jeff Masters
Director of Meteorology, Weather Underground
By Kari Strenfel
Meteorologist, Weather Underground
By Christopher C. Burt
Weather Historian, Weather Underground
October 20, 2014
October 20, 2014
October 20, 2014

Nearby

Snow Depth

Not available.

Earthquake Activity

City Distance Mag. Time & Date
No recent earthquake activity has been reported nearby.
Minimum magnitude displayed is 2.5.

Coastal Water Temperatures

Place Temperature
No Stations Reporting

Nearby Weather Stations